Time;durP1;ratioP1;P1;durP2;ratioP2;P2;SDS_P1;SDS_P2;PMS_P1;PMS_P2;Temp;Humidity;BMP_temperature;BMP_pressure;BME280_temperature;BME280_humidity;BME280_pressure;Samples;Min_cycle;Max_cycle;Signal;HPM_P1;HPM_P2
2021/09/25 00:00:34;;;;;;;5.70;5.13;;;;;;;;;;5031904;28;20401;-50
2021/09/25 00:03:01;;;;;;;7.20;4.63;;;;;;;;;;5031695;28;20430;-50
2021/09/25 00:05:31;;;;;;;5.47;4.73;;;;;;;;;;5031917;28;20455;-50
2021/09/25 00:07:58;;;;;;;14.43;5.17;;;;;;;;;;5031970;28;20402;-50
2021/09/25 00:10:25;;;;;;;6.40;4.30;;;;;;;;;;5031778;28;20464;-51
2021/09/25 00:12:51;;;;;;;8.93;5.00;;;;;;;;;;5031414;28;20491;-50
2021/09/25 00:15:18;;;;;;;7.10;4.70;;;;;;;;;;5031566;28;20404;-50
2021/09/25 00:17:45;;;;;;;9.57;5.50;;;;;;;;;;5031764;28;20401;-51
2021/09/25 00:20:11;;;;;;;6.10;4.97;;;;;;;;;;5031763;28;20409;-49
2021/09/25 00:22:37;;;;;;;6.30;5.10;;;;;;;;;;5031809;28;20421;-50
2021/09/25 00:25:04;;;;;;;5.67;5.10;;;;;;;;;;5031661;28;20383;-49
2021/09/25 00:27:30;;;;;;;5.47;4.67;;;;;;;;;;5031765;28;20377;-50
2021/09/25 00:29:56;;;;;;;6.40;4.97;;;;;;;;;;5031619;28;20403;-49
2021/09/25 00:32:22;;;;;;;5.53;4.90;;;;;;;;;;5031198;28;20473;-48
2021/09/25 00:34:48;;;;;;;7.73;5.23;;;;;;;;;;5031652;28;20444;-51
2021/09/25 00:37:14;;;;;;;6.30;5.23;;;;;;;;;;5031543;28;20400;-51
2021/09/25 00:39:40;;;;;;;5.30;4.67;;;;;;;;;;5031531;28;20737;-50
2021/09/25 00:42:06;;;;;;;8.60;5.67;;;;;;;;;;5031272;28;20518;-51
2021/09/25 00:44:32;;;;;;;5.40;4.90;;;;;;;;;;5031585;28;20496;-51
2021/09/25 00:46:58;;;;;;;8.10;5.43;;;;;;;;;;5031522;28;20402;-51
2021/09/25 00:49:25;;;;;;;8.73;6.20;;;;;;;;;;5031615;28;20791;-51
2021/09/25 00:51:51;;;;;;;10.30;5.03;;;;;;;;;;5030933;28;20388;-51
2021/09/25 00:54:18;;;;;;;10.20;5.50;;;;;;;;;;5031513;28;20377;-51
2021/09/25 00:56:44;;;;;;;11.13;5.70;;;;;;;;;;5034840;28;20758;-49
2021/09/25 00:59:11;;;;;;;7.80;5.30;;;;;;;;;;5035351;28;20459;-50
2021/09/25 01:01:37;;;;;;;8.63;5.50;;;;;;;;;;5034530;28;20493;-51
2021/09/25 01:04:03;;;;;;;6.13;5.40;;;;;;;;;;5034508;28;20438;-50
2021/09/25 01:06:29;;;;;;;6.80;5.73;;;;;;;;;;5034582;28;20438;-50
2021/09/25 01:08:55;;;;;;;9.40;5.37;;;;;;;;;;5035156;28;20405;-50
2021/09/25 01:11:21;;;;;;;6.70;5.77;;;;;;;;;;5034922;28;20751;-51
2021/09/25 01:13:47;;;;;;;9.30;5.67;;;;;;;;;;5034605;28;20468;-49
2021/09/25 01:16:13;;;;;;;6.80;5.47;;;;;;;;;;5034830;28;20506;-50
2021/09/25 01:18:39;;;;;;;8.13;5.87;;;;;;;;;;5034916;28;20401;-48
2021/09/25 01:21:08;;;;;;;7.43;5.17;;;;;;;;;;5034626;28;20417;-49
2021/09/25 01:23:34;;;;;;;8.43;5.53;;;;;;;;;;5034544;28;20455;-52
2021/09/25 01:26:01;;;;;;;9.30;5.63;;;;;;;;;;5035048;28;20790;-51
2021/09/25 01:28:27;;;;;;;7.50;5.60;;;;;;;;;;5034734;28;20405;-52
2021/09/25 01:30:53;;;;;;;6.60;5.70;;;;;;;;;;5034563;28;20453;-48
2021/09/25 01:33:30;;;;;;;7.70;5.90;;;;;;;;;;5034343;28;20546;-51
2021/09/25 01:35:56;;;;;;;8.70;5.83;;;;;;;;;;5034721;28;20919;-48
2021/09/25 01:38:22;;;;;;;10.20;5.80;;;;;;;;;;5034582;28;20788;-49
2021/09/25 01:40:48;;;;;;;8.60;6.30;;;;;;;;;;5034372;28;20408;-47
2021/09/25 01:43:15;;;;;;;9.63;5.87;;;;;;;;;;5034218;28;20407;-49
2021/09/25 01:45:41;;;;;;;10.80;5.80;;;;;;;;;;5034313;28;20914;-50
2021/09/25 01:48:07;;;;;;;8.20;5.67;;;;;;;;;;5034308;28;21148;-51
2021/09/25 01:50:33;;;;;;;13.03;6.00;;;;;;;;;;5034167;28;20444;-50
2021/09/25 01:52:59;;;;;;;11.50;6.73;;;;;;;;;;5033839;28;20526;-50
2021/09/25 01:55:25;;;;;;;7.57;6.40;;;;;;;;;;5034253;28;20839;-51
2021/09/25 01:57:51;;;;;;;7.50;6.40;;;;;;;;;;5034191;28;20483;-49
2021/09/25 02:00:19;;;;;;;11.13;7.40;;;;;;;;;;5034148;28;20986;-49
2021/09/25 02:02:45;;;;;;;9.57;7.33;;;;;;;;;;5033596;28;20448;-51
2021/09/25 02:05:11;;;;;;;13.43;7.57;;;;;;;;;;5034022;28;20408;-51
2021/09/25 02:07:38;;;;;;;7.23;5.87;;;;;;;;;;5033682;28;20400;-51
2021/09/25 02:10:04;;;;;;;8.50;6.73;;;;;;;;;;5034044;28;20410;-50
2021/09/25 02:12:30;;;;;;;11.27;7.17;;;;;;;;;;5033449;28;20488;-51
2021/09/25 02:14:56;;;;;;;9.23;6.70;;;;;;;;;;5034161;28;20911;-52
2021/09/25 02:17:22;;;;;;;11.50;7.30;;;;;;;;;;5033781;28;20772;-50
2021/09/25 02:19:49;;;;;;;9.40;6.67;;;;;;;;;;5033784;28;20401;-51
2021/09/25 02:22:15;;;;;;;11.53;7.00;;;;;;;;;;5033301;28;20429;-49
2021/09/25 02:24:41;;;;;;;12.27;7.60;;;;;;;;;;5033618;28;20404;-50
2021/09/25 02:27:07;;;;;;;10.27;7.20;;;;;;;;;;5033565;28;20404;-50
2021/09/25 02:29:33;;;;;;;10.70;6.80;;;;;;;;;;5033561;28;20408;-48
2021/09/25 02:31:59;;;;;;;10.53;7.40;;;;;;;;;;5032969;28;20401;-51
2021/09/25 02:34:25;;;;;;;12.57;7.63;;;;;;;;;;5033488;28;20397;-52
2021/09/25 02:36:51;;;;;;;11.20;8.50;;;;;;;;;;5033343;28;20787;-51
2021/09/25 02:39:17;;;;;;;8.63;6.60;;;;;;;;;;5033385;28;20496;-52
2021/09/25 02:41:43;;;;;;;10.03;6.80;;;;;;;;;;5033048;28;20946;-50
2021/09/25 02:44:09;;;;;;;14.73;7.57;;;;;;;;;;5033286;28;20412;-52
2021/09/25 02:46:35;;;;;;;12.07;8.00;;;;;;;;;;5033096;28;20916;-49
2021/09/25 02:49:01;;;;;;;13.13;7.60;;;;;;;;;;5033214;28;20498;-51
2021/09/25 02:51:27;;;;;;;9.97;7.37;;;;;;;;;;5033143;28;20423;-50
2021/09/25 02:53:53;;;;;;;12.10;7.70;;;;;;;;;;5032783;28;20490;-51
2021/09/25 02:56:19;;;;;;;11.87;7.33;;;;;;;;;;5033008;28;20909;-49
2021/09/25 02:58:45;;;;;;;11.10;8.00;;;;;;;;;;5033043;28;20911;-49
2021/09/25 03:01:11;;;;;;;13.80;7.67;;;;;;;;;;5032917;28;20398;-50
2021/09/25 03:03:37;;;;;;;14.70;7.70;;;;;;;;;;5032544;28;20499;-51
2021/09/25 03:06:03;;;;;;;22.20;7.07;;;;;;;;;;5032945;28;20401;-51
2021/09/25 03:08:29;;;;;;;11.40;7.73;;;;;;;;;;5032847;28;20434;-51
2021/09/25 03:10:55;;;;;;;12.17;8.40;;;;;;;;;;5032741;28;20458;-51
2021/09/25 03:13:21;;;;;;;13.83;7.60;;;;;;;;;;5032395;28;20456;-51
2021/09/25 03:15:47;;;;;;;11.10;8.00;;;;;;;;;;5032556;28;20425;-50
2021/09/25 03:18:13;;;;;;;12.37;8.23;;;;;;;;;;5032017;28;20535;-50
2021/09/25 03:20:38;;;;;;;22.20;9.10;;;;;;;;;;5032624;28;20480;-50
2021/09/25 03:23:04;;;;;;;11.67;8.20;;;;;;;;;;5032201;28;20437;-51
2021/09/25 03:25:30;;;;;;;15.70;8.10;;;;;;;;;;5032652;28;20491;-51
2021/09/25 03:27:56;;;;;;;9.97;7.97;;;;;;;;;;5032438;28;20413;-49
2021/09/25 03:30:23;;;;;;;12.10;7.47;;;;;;;;;;5032469;28;20413;-52
2021/09/25 03:32:49;;;;;;;8.73;6.90;;;;;;;;;;5031889;28;20460;-51
2021/09/25 03:35:15;;;;;;;7.90;6.73;;;;;;;;;;5032419;28;20401;-51
2021/09/25 03:37:41;;;;;;;12.57;7.40;;;;;;;;;;5032306;28;20400;-50
2021/09/25 03:40:08;;;;;;;8.83;6.80;;;;;;;;;;5032399;28;20501;-51
2021/09/25 03:42:34;;;;;;;9.87;7.20;;;;;;;;;;5031889;28;20748;-50
2021/09/25 03:45:00;;;;;;;13.40;8.77;;;;;;;;;;5032199;28;20384;-51
2021/09/25 03:47:25;;;;;;;11.53;7.60;;;;;;;;;;5032279;28;20454;-51
2021/09/25 03:49:51;;;;;;;9.93;7.57;;;;;;;;;;5032142;28;20412;-51
2021/09/25 03:52:17;;;;;;;13.47;7.47;;;;;;;;;;5031650;28;20504;-51
2021/09/25 03:54:43;;;;;;;6.93;6.20;;;;;;;;;;5032273;28;20400;-51
2021/09/25 03:57:09;;;;;;;10.27;7.10;;;;;;;;;;5031771;28;20429;-50
2021/09/25 03:59:35;;;;;;;12.03;7.00;;;;;;;;;;5031999;28;20924;-49
2021/09/25 04:02:01;;;;;;;11.07;7.60;;;;;;;;;;5031044;28;20784;-50
2021/09/25 04:04:27;;;;;;;13.30;6.87;;;;;;;;;;5031704;28;20452;-48
2021/09/25 04:06:53;;;;;;;10.63;6.80;;;;;;;;;;5031948;28;20491;-51
2021/09/25 04:09:19;;;;;;;10.70;7.00;;;;;;;;;;5031885;28;20387;-51
2021/09/25 04:11:48;;;;;;;7.67;6.50;;;;;;;;;;5031521;28;20926;-50
2021/09/25 04:14:23;;;;;;;9.00;6.90;;;;;;;;;;5031687;28;20946;-50
2021/09/25 04:16:49;;;;;;;6.73;5.40;;;;;;;;;;5032054;28;20412;-51
2021/09/25 04:19:15;;;;;;;9.10;6.40;;;;;;;;;;5031911;28;20393;-52
2021/09/25 04:21:41;;;;;;;9.80;7.17;;;;;;;;;;5031614;28;20948;-50
2021/09/25 04:24:07;;;;;;;9.80;5.70;;;;;;;;;;5031521;28;20797;-51
2021/09/25 04:26:33;;;;;;;6.47;5.77;;;;;;;;;;5031679;28;20468;-50
2021/09/25 04:28:59;;;;;;;8.90;5.30;;;;;;;;;;5031623;28;20885;-50
2021/09/25 04:31:25;;;;;;;15.87;5.90;;;;;;;;;;5034716;28;20406;-48
2021/09/25 04:33:51;;;;;;;9.13;6.63;;;;;;;;;;5035421;28;20515;-48
2021/09/25 04:36:17;;;;;;;7.33;5.67;;;;;;;;;;5035771;28;20540;-49
2021/09/25 04:38:43;;;;;;;8.23;5.83;;;;;;;;;;5036359;28;20744;-51
2021/09/25 04:41:09;;;;;;;7.50;5.70;;;;;;;;;;5035520;28;20421;-52
2021/09/25 04:43:35;;;;;;;6.03;5.07;;;;;;;;;;5035208;28;20450;-52
2021/09/25 04:46:01;;;;;;;8.93;5.37;;;;;;;;;;5035748;28;20904;-50
2021/09/25 04:48:27;;;;;;;7.20;5.53;;;;;;;;;;5035494;28;20461;-52
2021/09/25 04:50:53;;;;;;;7.90;5.03;;;;;;;;;;5035467;28;20401;-52
2021/09/25 04:53:19;;;;;;;7.00;5.20;;;;;;;;;;5035096;28;20460;-51
2021/09/25 04:55:46;;;;;;;10.50;6.07;;;;;;;;;;5035281;28;20409;-51
2021/09/25 04:58:12;;;;;;;8.07;5.67;;;;;;;;;;5035283;28;20434;-50
2021/09/25 05:00:38;;;;;;;14.87;6.43;;;;;;;;;;5035301;28;20401;-51
2021/09/25 05:03:04;;;;;;;5.80;5.20;;;;;;;;;;5035056;28;20821;-51
2021/09/25 05:05:31;;;;;;;8.43;5.87;;;;;;;;;;5035280;28;20828;-51
2021/09/25 05:07:56;;;;;;;10.73;7.93;;;;;;;;;;5035014;28;20388;-49
2021/09/25 05:10:22;;;;;;;11.53;6.27;;;;;;;;;;5035092;28;20782;-51
2021/09/25 05:12:48;;;;;;;10.63;7.07;;;;;;;;;;5034576;28;20526;-49
2021/09/25 05:15:16;;;;;;;6.93;5.93;;;;;;;;;;5035152;28;20429;-51
2021/09/25 05:17:42;;;;;;;8.57;6.27;;;;;;;;;;5035038;28;20402;-51
2021/09/25 05:20:09;;;;;;;9.90;5.10;;;;;;;;;;5034988;28;20895;-51
2021/09/25 05:22:35;;;;;;;6.87;6.17;;;;;;;;;;5034434;28;20963;-51
2021/09/25 05:25:02;;;;;;;10.40;6.17;;;;;;;;;;5035023;28;20424;-51
2021/09/25 05:27:27;;;;;;;8.90;6.33;;;;;;;;;;5034836;28;20473;-50
2021/09/25 05:29:53;;;;;;;8.10;5.90;;;;;;;;;;5034641;28;20902;-51
2021/09/25 05:32:19;;;;;;;8.20;5.87;;;;;;;;;;5034133;28;20789;-50
2021/09/25 05:34:45;;;;;;;10.30;6.73;;;;;;;;;;5034619;28;20823;-48
2021/09/25 05:37:12;;;;;;;8.27;6.00;;;;;;;;;;5034546;28;20402;-49
2021/09/25 05:39:38;;;;;;;10.27;7.33;;;;;;;;;;5034504;28;20395;-48
2021/09/25 05:42:05;;;;;;;10.17;6.20;;;;;;;;;;5033588;28;20422;-50
2021/09/25 05:44:31;;;;;;;9.80;6.60;;;;;;;;;;5034417;28;20456;-51
2021/09/25 05:46:57;;;;;;;10.77;8.00;;;;;;;;;;5034572;28;20493;-51
2021/09/25 05:49:23;;;;;;;10.97;6.87;;;;;;;;;;5034381;28;20401;-51
2021/09/25 05:51:50;;;;;;;7.80;5.97;;;;;;;;;;5033863;28;20406;-50
2021/09/25 05:54:16;;;;;;;8.37;6.60;;;;;;;;;;5034105;28;20456;-50
2021/09/25 05:56:42;;;;;;;12.17;7.40;;;;;;;;;;5034216;28;20398;-51
2021/09/25 05:59:08;;;;;;;10.00;7.03;;;;;;;;;;5034116;28;20401;-52
2021/09/25 06:01:36;;;;;;;7.83;6.80;;;;;;;;;;5034034;28;20394;-52
2021/09/25 06:04:05;;;;;;;10.17;6.90;;;;;;;;;;5033686;28;20427;-51
2021/09/25 06:06:33;;;;;;;10.13;6.40;;;;;;;;;;5034078;28;20412;-51
2021/09/25 06:08:59;;;;;;;11.40;6.60;;;;;;;;;;5033948;28;20765;-48
2021/09/25 06:11:25;;;;;;;9.67;6.60;;;;;;;;;;5034038;28;20402;-51
2021/09/25 06:13:51;;;;;;;8.87;7.17;;;;;;;;;;5033558;28;20535;-51
2021/09/25 06:16:17;;;;;;;10.33;6.90;;;;;;;;;;5033899;28;20426;-51
2021/09/25 06:18:44;;;;;;;8.57;6.27;;;;;;;;;;5033726;28;20440;-52
2021/09/25 06:21:11;;;;;;;13.57;7.03;;;;;;;;;;5033648;28;20402;-50
2021/09/25 06:23:37;;;;;;;10.63;6.63;;;;;;;;;;5033445;28;20913;-50
2021/09/25 06:26:07;;;;;;;9.00;6.90;;;;;;;;;;5033865;28;20413;-52
2021/09/25 06:28:33;;;;;;;10.10;6.50;;;;;;;;;;5033660;28;20398;-49
2021/09/25 06:30:59;;;;;;;10.07;6.13;;;;;;;;;;5033445;28;20401;-49
2021/09/25 06:33:27;;;;;;;9.30;6.33;;;;;;;;;;5033136;28;20452;-51
2021/09/25 06:35:53;;;;;;;8.33;6.13;;;;;;;;;;5033364;28;20891;-51
2021/09/25 06:38:21;;;;;;;9.27;5.90;;;;;;;;;;5033454;28;20406;-50
2021/09/25 06:40:48;;;;;;;10.50;6.10;;;;;;;;;;5033569;28;20774;-51
2021/09/25 06:43:14;;;;;;;8.50;6.17;;;;;;;;;;5033145;28;20426;-50
2021/09/25 06:45:40;;;;;;;8.87;6.30;;;;;;;;;;5033316;28;20888;-49
2021/09/25 06:48:06;;;;;;;13.20;6.87;;;;;;;;;;5033206;28;20410;-49
2021/09/25 06:50:32;;;;;;;9.10;6.17;;;;;;;;;;5033138;28;20882;-49
2021/09/25 06:52:58;;;;;;;10.33;6.10;;;;;;;;;;5031886;28;20484;-49
2021/09/25 06:55:24;;;;;;;12.47;7.13;;;;;;;;;;5033094;28;20430;-49
2021/09/25 06:57:50;;;;;;;9.50;5.93;;;;;;;;;;5033163;28;20708;-49
2021/09/25 07:00:16;;;;;;;12.17;6.30;;;;;;;;;;5032942;28;20369;-50
2021/09/25 07:02:42;;;;;;;13.50;6.53;;;;;;;;;;5032596;28;20522;-48
2021/09/25 07:05:12;;;;;;;7.97;6.33;;;;;;;;;;5032857;28;20476;-52
2021/09/25 07:07:38;;;;;;;9.30;5.87;;;;;;;;;;5032951;28;20404;-51
2021/09/25 07:10:05;;;;;;;8.90;5.63;;;;;;;;;;5032777;28;20408;-51
2021/09/25 07:12:31;;;;;;;8.10;5.70;;;;;;;;;;5032412;28;20481;-48
2021/09/25 07:14:59;;;;;;;9.67;6.07;;;;;;;;;;5032588;28;20422;-51
2021/09/25 07:17:26;;;;;;;8.90;6.33;;;;;;;;;;5032690;28;20373;-52
2021/09/25 07:19:52;;;;;;;7.57;5.37;;;;;;;;;;5032730;28;20465;-49
2021/09/25 07:22:18;;;;;;;11.10;7.20;;;;;;;;;;5032273;28;20422;-51
2021/09/25 07:24:44;;;;;;;9.77;7.13;;;;;;;;;;5032542;28;20979;-51
2021/09/25 07:27:10;;;;;;;9.80;6.80;;;;;;;;;;5032587;28;20419;-51
2021/09/25 07:29:37;;;;;;;10.87;6.57;;;;;;;;;;5032431;28;20501;-52
2021/09/25 07:32:03;;;;;;;8.13;6.60;;;;;;;;;;5032030;28;20463;-52
2021/09/25 07:34:29;;;;;;;9.33;6.07;;;;;;;;;;5032578;28;20514;-50
2021/09/25 07:36:56;;;;;;;9.03;7.27;;;;;;;;;;5032345;28;20890;-50
2021/09/25 07:39:23;;;;;;;12.93;6.93;;;;;;;;;;5032494;28;20374;-51
2021/09/25 07:41:49;;;;;;;8.70;6.40;;;;;;;;;;5031962;28;20383;-52
2021/09/25 07:44:15;;;;;;;8.20;6.43;;;;;;;;;;5032162;28;20394;-51
2021/09/25 07:46:41;;;;;;;9.10;6.40;;;;;;;;;;5032136;28;20382;-52
2021/09/25 07:49:09;;;;;;;14.03;7.60;;;;;;;;;;5032207;28;20842;-52
2021/09/25 07:51:35;;;;;;;12.80;8.50;;;;;;;;;;5032126;28;20960;-51
2021/09/25 07:54:01;;;;;;;11.53;8.03;;;;;;;;;;5031755;28;20987;-51
2021/09/25 07:56:27;;;;;;;9.70;7.33;;;;;;;;;;5032051;28;20399;-51
2021/09/25 07:58:53;;;;;;;13.40;8.47;;;;;;;;;;5032015;28;20860;-50
2021/09/25 08:01:18;;;;;;;11.87;8.20;;;;;;;;;;5031928;28;20383;-50
2021/09/25 08:03:44;;;;;;;12.33;7.43;;;;;;;;;;5031513;28;20766;-51
2021/09/25 08:06:11;;;;;;;10.47;8.40;;;;;;;;;;5030880;28;20419;-51
2021/09/25 08:08:37;;;;;;;14.53;8.20;;;;;;;;;;5031779;28;20825;-50
2021/09/25 08:11:03;;;;;;;8.70;7.20;;;;;;;;;;5031422;28;20409;-50
2021/09/25 08:13:29;;;;;;;14.40;9.27;;;;;;;;;;5030359;28;20532;-49
2021/09/25 08:15:55;;;;;;;10.50;8.00;;;;;;;;;;5029715;28;20431;-49
2021/09/25 08:18:22;;;;;;;12.57;7.47;;;;;;;;;;5031648;28;20409;-52
2021/09/25 08:20:48;;;;;;;13.03;7.50;;;;;;;;;;5031477;28;20380;-52
2021/09/25 08:23:14;;;;;;;11.10;7.00;;;;;;;;;;5031562;28;20410;-49
2021/09/25 08:25:41;;;;;;;8.50;6.60;;;;;;;;;;5031646;28;20379;-52
2021/09/25 08:28:07;;;;;;;12.97;7.83;;;;;;;;;;5031625;28;20446;-51
2021/09/25 08:30:33;;;;;;;10.80;8.37;;;;;;;;;;5031716;28;20388;-50
2021/09/25 08:32:59;;;;;;;9.90;7.40;;;;;;;;;;5031358;28;20437;-52
2021/09/25 08:35:26;;;;;;;12.20;8.03;;;;;;;;;;5031628;28;20479;-49
2021/09/25 08:37:52;;;;;;;15.63;7.67;;;;;;;;;;5031775;28;20372;-51
2021/09/25 08:40:22;;;;;;;10.13;7.43;;;;;;;;;;5031700;28;20875;-50
2021/09/25 08:42:49;;;;;;;8.47;7.23;;;;;;;;;;5031098;28;20487;-52
2021/09/25 08:45:15;;;;;;;8.67;6.67;;;;;;;;;;5031651;28;20413;-51
2021/09/25 08:47:41;;;;;;;10.00;6.83;;;;;;;;;;5031550;28;20406;-52
2021/09/25 08:50:08;;;;;;;12.17;7.27;;;;;;;;;;5031546;28;20391;-52
2021/09/25 08:52:35;;;;;;;14.27;7.90;;;;;;;;;;5031055;28;20457;-50
2021/09/25 08:55:02;;;;;;;8.33;7.13;;;;;;;;;;5031542;28;20418;-52
2021/09/25 08:57:28;;;;;;;12.83;7.33;;;;;;;;;;5031102;28;20906;-51
2021/09/25 08:59:54;;;;;;;11.97;7.90;;;;;;;;;;5031499;28;20383;-51
2021/09/25 09:02:21;;;;;;;11.43;6.87;;;;;;;;;;5031194;28;20938;-52
2021/09/25 09:04:47;;;;;;;8.27;6.80;;;;;;;;;;5031454;28;20426;-50
2021/09/25 09:07:14;;;;;;;11.17;7.33;;;;;;;;;;5031328;28;20758;-48
2021/09/25 09:09:44;;;;;;;10.77;6.67;;;;;;;;;;5031419;28;20375;-52
2021/09/25 09:12:10;;;;;;;13.00;7.13;;;;;;;;;;5030705;28;20846;-51
2021/09/25 09:14:46;;;;;;;16.57;7.57;;;;;;;;;;5031224;28;20905;-51
2021/09/25 09:17:17;;;;;;;8.70;7.10;;;;;;;;;;5033737;28;20405;-51
2021/09/25 09:19:43;;;;;;;7.20;6.50;;;;;;;;;;5034975;28;20402;-50
2021/09/25 09:22:09;;;;;;;13.70;7.40;;;;;;;;;;5034463;28;20399;-51
2021/09/25 09:24:43;;;;;;;11.00;6.87;;;;;;;;;;5033917;28;20401;-49
2021/09/25 09:27:30;;;;;;;8.23;7.00;;;;;;;;;;5034616;28;20788;-51
2021/09/25 09:30:12;;;;;;;7.63;5.27;;;;;;;;;;5034843;28;20403;-51
2021/09/25 09:32:39;;;;;;;8.20;6.10;;;;;;;;;;5034157;28;20464;-52
2021/09/25 09:35:14;;;;;;;9.60;5.93;;;;;;;;;;5034588;28;20380;-49
2021/09/25 09:37:40;;;;;;;10.10;6.80;;;;;;;;;;5034535;28;20441;-51
2021/09/25 09:40:07;;;;;;;6.57;5.93;;;;;;;;;;5034486;28;20899;-51
2021/09/25 09:42:46;;;;;;;7.43;4.67;;;;;;;;;;5034165;28;20898;-51
2021/09/25 09:45:12;;;;;;;7.40;6.60;;;;;;;;;;5034388;28;20497;-49
2021/09/25 09:47:45;;;;;;;7.40;5.63;;;;;;;;;;5034402;28;20407;-50
2021/09/25 09:50:16;;;;;;;10.97;8.50;;;;;;;;;;5034550;28;20473;-51
2021/09/25 09:52:42;;;;;;;6.93;5.70;;;;;;;;;;5033942;28;20477;-51
2021/09/25 09:55:08;;;;;;;6.40;5.13;;;;;;;;;;5032887;28;20874;-49
2021/09/25 09:57:34;;;;;;;5.83;5.20;;;;;;;;;;5034247;28;20397;-52
2021/09/25 10:00:01;;;;;;;6.27;5.10;;;;;;;;;;5034215;28;20499;-49
2021/09/25 10:02:27;;;;;;;10.30;8.20;;;;;;;;;;5033748;28;20426;-51
2021/09/25 10:04:53;;;;;;;11.17;7.10;;;;;;;;;;5033727;28;20403;-51
2021/09/25 10:07:19;;;;;;;8.60;6.70;;;;;;;;;;5033965;28;20381;-48
2021/09/25 10:09:45;;;;;;;8.90;6.30;;;;;;;;;;5033483;28;20450;-51
2021/09/25 10:12:13;;;;;;;10.00;6.57;;;;;;;;;;5032845;28;20410;-49
2021/09/25 10:14:45;;;;;;;9.37;6.17;;;;;;;;;;5033557;28;20893;-50
2021/09/25 10:17:13;;;;;;;7.17;5.67;;;;;;;;;;5033969;28;20434;-51
2021/09/25 10:19:40;;;;;;;9.30;6.90;;;;;;;;;;5034143;28;20442;-52
2021/09/25 10:22:12;;;;;;;7.00;5.43;;;;;;;;;;5033497;28;20463;-50
2021/09/25 10:24:41;;;;;;;8.20;5.90;;;;;;;;;;5033766;28;20413;-49
2021/09/25 10:27:09;;;;;;;7.27;6.50;;;;;;;;;;5033675;28;20394;-50
2021/09/25 10:29:42;;;;;;;9.80;7.07;;;;;;;;;;5033771;28;20405;-50
2021/09/25 10:32:17;;;;;;;9.83;6.37;;;;;;;;;;5033382;28;20804;-51
2021/09/25 10:35:02;;;;;;;7.93;6.50;;;;;;;;;;5033713;28;20581;-52
2021/09/25 10:37:33;;;;;;;8.83;6.27;;;;;;;;;;5034127;28;20396;-51
2021/09/25 10:39:59;;;;;;;8.37;6.53;;;;;;;;;;5032214;28;20406;-50
2021/09/25 10:42:43;;;;;;;14.13;6.50;;;;;;;;;;5033073;28;20420;-52
2021/09/25 10:45:12;;;;;;;9.37;6.50;;;;;;;;;;5033282;28;20922;-49
2021/09/25 10:47:40;;;;;;;8.20;6.60;;;;;;;;;;5032206;28;20503;-49
2021/09/25 10:50:16;;;;;;;10.10;7.00;;;;;;;;;;5033353;28;20405;-49
2021/09/25 10:52:44;;;;;;;8.37;6.67;;;;;;;;;;5032870;28;20450;-51
2021/09/25 10:55:24;;;;;;;7.40;6.23;;;;;;;;;;5033079;28;20404;-50
2021/09/25 10:58:25;;;;;;;6.40;5.60;;;;;;;;;;5031980;28;20477;-50
2021/09/25 11:00:54;;;;;;;7.93;6.50;;;;;;;;;;5030649;28;20411;-50
2021/09/25 11:03:39;;;;;;;5.93;5.43;;;;;;;;;;5032160;28;20529;-50
2021/09/25 11:06:26;;;;;;;7.47;5.80;;;;;;;;;;5032866;28;20460;-49
2021/09/25 11:08:54;;;;;;;8.33;5.73;;;;;;;;;;5032794;28;20973;-50
2021/09/25 11:11:30;;;;;;;5.80;5.20;;;;;;;;;;5032703;28;20911;-50
2021/09/25 11:14:04;;;;;;;6.00;5.43;;;;;;;;;;5032394;28;20465;-50
2021/09/25 11:16:49;;;;;;;12.23;5.50;;;;;;;;;;5032550;28;20425;-49
2021/09/25 11:19:26;;;;;;;5.87;4.77;;;;;;;;;;5032794;28;20405;-49
2021/09/25 11:22:00;;;;;;;5.60;5.03;;;;;;;;;;5032292;28;20394;-50
2021/09/25 11:24:27;;;;;;;9.00;6.50;;;;;;;;;;5032776;28;20885;-50
2021/09/25 11:26:53;;;;;;;6.23;5.63;;;;;;;;;;5032571;28;20436;-50
2021/09/25 11:29:22;;;;;;;8.13;6.03;;;;;;;;;;5032284;28;20449;-48
2021/09/25 11:31:49;;;;;;;8.23;5.97;;;;;;;;;;5032627;28;20399;-47
2021/09/25 11:34:24;;;;;;;7.50;5.50;;;;;;;;;;5032497;28;20573;-47
2021/09/25 11:36:51;;;;;;;7.93;4.50;;;;;;;;;;5032423;28;20390;-47
2021/09/25 11:39:23;;;;;;;7.50;5.63;;;;;;;;;;5031823;28;20398;-47
2021/09/25 11:42:09;;;;;;;6.40;5.23;;;;;;;;;;5031852;28;20405;-47
2021/09/25 11:45:01;;;;;;;6.20;5.33;;;;;;;;;;5032192;28;20398;-47
2021/09/25 11:47:38;;;;;;;6.03;4.83;;;;;;;;;;5031791;28;20418;-47
2021/09/25 11:50:11;;;;;;;11.67;6.10;;;;;;;;;;5031987;28;20394;-47
2021/09/25 11:52:38;;;;;;;6.37;5.27;;;;;;;;;;5031746;28;20539;-47
2021/09/25 11:55:06;;;;;;;8.00;6.00;;;;;;;;;;5032300;28;20509;-47
2021/09/25 11:57:32;;;;;;;6.70;6.00;;;;;;;;;;5032097;28;20484;-46
2021/09/25 11:59:58;;;;;;;6.00;5.07;;;;;;;;;;5032015;28;20498;-47
2021/09/25 12:02:36;;;;;;;6.90;6.30;;;;;;;;;;5031666;28;20425;-46
2021/09/25 12:05:03;;;;;;;6.37;5.77;;;;;;;;;;5031882;28;20401;-47
2021/09/25 12:07:38;;;;;;;7.93;6.30;;;;;;;;;;5031811;28;20412;-47
2021/09/25 12:10:20;;;;;;;10.27;5.60;;;;;;;;;;5031826;28;20900;-47
2021/09/25 12:12:47;;;;;;;5.20;4.80;;;;;;;;;;5031482;28;20460;-47
2021/09/25 12:15:23;;;;;;;5.43;4.93;;;;;;;;;;5031598;28;20429;-47
2021/09/25 12:18:07;;;;;;;5.93;4.70;;;;;;;;;;5031874;28;20451;-47
2021/09/25 12:20:33;;;;;;;6.80;5.47;;;;;;;;;;5031978;28;20951;-47
2021/09/25 12:23:01;;;;;;;7.10;5.90;;;;;;;;;;5031441;28;20921;-47
2021/09/25 12:25:27;;;;;;;8.67;7.17;;;;;;;;;;5031785;28;20398;-48
2021/09/25 12:27:53;;;;;;;6.30;5.70;;;;;;;;;;5031617;28;20409;-49
2021/09/25 12:30:19;;;;;;;7.00;5.90;;;;;;;;;;5031754;28;20795;-47
2021/09/25 12:33:04;;;;;;;8.57;6.57;;;;;;;;;;5031679;28;20454;-49
2021/09/25 12:35:30;;;;;;;7.40;5.30;;;;;;;;;;5031705;28;20433;-48
2021/09/25 12:37:56;;;;;;;5.13;4.10;;;;;;;;;;5031571;28;20405;-51
2021/09/25 12:40:22;;;;;;;5.83;5.27;;;;;;;;;;5031825;28;20897;-46
2021/09/25 12:42:53;;;;;;;5.93;5.40;;;;;;;;;;5031336;28;20449;-47
2021/09/25 12:45:19;;;;;;;8.70;5.53;;;;;;;;;;5031484;28;20483;-46
2021/09/25 12:47:46;;;;;;;6.30;5.50;;;;;;;;;;5031498;28;20917;-47
2021/09/25 12:50:19;;;;;;;4.47;4.07;;;;;;;;;;5031518;28;20495;-47
2021/09/25 12:52:46;;;;;;;6.97;4.80;;;;;;;;;;5034480;28;20473;-47
2021/09/25 12:55:15;;;;;;;6.70;6.00;;;;;;;;;;5035673;28;20757;-47
2021/09/25 12:57:41;;;;;;;6.80;6.10;;;;;;;;;;5035372;28;20402;-47
2021/09/25 13:00:09;;;;;;;6.23;5.73;;;;;;;;;;5035261;28;20435;-49
2021/09/25 13:02:35;;;;;;;7.97;6.17;;;;;;;;;;5034919;28;20944;-46
2021/09/25 13:05:03;;;;;;;6.87;6.03;;;;;;;;;;5035293;28;20459;-47
2021/09/25 13:07:33;;;;;;;4.47;4.07;;;;;;;;;;5035030;28;20399;-47
2021/09/25 13:10:02;;;;;;;5.07;4.57;;;;;;;;;;5035132;28;20396;-47
2021/09/25 13:12:31;;;;;;;5.93;4.70;;;;;;;;;;5034697;28;20769;-49
2021/09/25 13:15:03;;;;;;;4.87;4.10;;;;;;;;;;5034925;28;20519;-47
2021/09/25 13:17:30;;;;;;;4.00;3.60;;;;;;;;;;5034974;28;20411;-47
2021/09/25 13:19:56;;;;;;;6.30;4.27;;;;;;;;;;5034830;28;20420;-48
2021/09/25 13:22:23;;;;;;;7.23;5.17;;;;;;;;;;5034505;28;20796;-47
2021/09/25 13:24:50;;;;;;;7.00;3.93;;;;;;;;;;5034681;28;20914;-47
2021/09/25 13:27:16;;;;;;;5.27;4.60;;;;;;;;;;5034603;28;20974;-48
2021/09/25 13:29:42;;;;;;;8.30;5.47;;;;;;;;;;5034580;28;20770;-48
2021/09/25 13:32:11;;;;;;;5.97;5.17;;;;;;;;;;5034342;28;20425;-48
2021/09/25 13:34:38;;;;;;;5.63;3.90;;;;;;;;;;5034551;28;21077;-47
2021/09/25 13:37:04;;;;;;;4.00;3.70;;;;;;;;;;5034753;28;20485;-48
2021/09/25 13:39:30;;;;;;;5.83;5.30;;;;;;;;;;5034448;28;20459;-48
2021/09/25 13:41:56;;;;;;;5.20;4.80;;;;;;;;;;5034270;28;20901;-47
2021/09/25 13:44:22;;;;;;;4.17;3.77;;;;;;;;;;5034538;28;20778;-47
2021/09/25 13:46:49;;;;;;;6.30;5.13;;;;;;;;;;5034470;28;20404;-49
2021/09/25 13:49:15;;;;;;;4.57;4.27;;;;;;;;;;5034443;28;20556;-48
2021/09/25 13:51:41;;;;;;;5.20;4.70;;;;;;;;;;5034151;28;20779;-50
2021/09/25 13:54:07;;;;;;;4.67;4.37;;;;;;;;;;5034078;28;20457;-48
2021/09/25 13:56:33;;;;;;;4.60;4.00;;;;;;;;;;5034299;28;20398;-48
2021/09/25 13:59:00;;;;;;;4.70;4.20;;;;;;;;;;5034300;28;20488;-47
2021/09/25 14:01:26;;;;;;;4.70;3.50;;;;;;;;;;5030952;28;20406;-48
2021/09/25 14:03:54;;;;;;;5.10;4.47;;;;;;;;;;5033645;28;20418;-50
2021/09/25 14:06:20;;;;;;;6.27;4.50;;;;;;;;;;5034048;28;20886;-51
2021/09/25 14:08:46;;;;;;;4.30;3.90;;;;;;;;;;5034126;28;20413;-47
2021/09/25 14:11:12;;;;;;;5.30;4.80;;;;;;;;;;5032799;28;20812;-49
2021/09/25 14:13:39;;;;;;;5.03;4.50;;;;;;;;;;5033392;28;20490;-48
2021/09/25 14:16:09;;;;;;;5.37;4.50;;;;;;;;;;5033729;28;20426;-48
2021/09/25 14:18:35;;;;;;;3.90;3.63;;;;;;;;;;5031639;28;20425;-51
2021/09/25 14:21:01;;;;;;;4.23;3.27;;;;;;;;;;5033462;28;20404;-48
2021/09/25 14:23:29;;;;;;;4.83;4.10;;;;;;;;;;5033614;28;20431;-51
2021/09/25 14:25:56;;;;;;;5.93;4.03;;;;;;;;;;5033777;28;20498;-48
2021/09/25 14:28:23;;;;;;;4.17;3.77;;;;;;;;;;5033771;28;20410;-49
2021/09/25 14:30:50;;;;;;;7.53;4.40;;;;;;;;;;5033519;28;20410;-49
2021/09/25 14:33:16;;;;;;;4.37;3.90;;;;;;;;;;5033258;28;20454;-51
2021/09/25 14:35:43;;;;;;;4.57;4.27;;;;;;;;;;5033600;28;20406;-48
2021/09/25 14:38:10;;;;;;;4.20;3.90;;;;;;;;;;5033623;28;20453;-50
2021/09/25 14:40:37;;;;;;;5.33;3.60;;;;;;;;;;5033433;28;20877;-48